Time;durP1;ratioP1;P1;durP2;ratioP2;P2;SDS_P1;SDS_P2;PMS_P1;PMS_P2;Temp;Humidity;BMP_temperature;BMP_pressure;BME280_temperature;BME280_humidity;BME280_pressure;Samples;Min_cycle;Max_cycle;Signal;HPM_P1;HPM_P2
2022/12/03 00:01:44;;;;;;;;;;;3.30;99.90;;;;;;5112141;28;19923;-77
2022/12/03 00:04:11;;;;;;;;;;;3.50;99.90;;;;;;5130172;28;20406;-78
2022/12/03 00:06:38;;;;;;;;;;;3.30;99.90;;;;;;5128307;28;19931;-78
2022/12/03 00:09:06;;;;;;;;;;;3.20;99.90;;;;;;5106769;28;19927;-78
2022/12/03 00:11:33;;;;;;;;;;;3.20;99.90;;;;;;5110751;28;19934;-78
2022/12/03 00:14:01;;;;;;;;;;;3.10;99.90;;;;;;5110893;28;20455;-78
2022/12/03 00:16:28;;;;;;;;;;;3.20;99.90;;;;;;5130376;28;20378;-78
2022/12/03 00:18:55;;;;;;;;;;;3.20;99.90;;;;;;5112222;28;19923;-77
2022/12/03 00:21:22;;;;;;;;;;;3.10;99.90;;;;;;5113251;28;20003;-78
2022/12/03 00:23:49;;;;;;;;;;;3.20;99.90;;;;;;5128925;28;19951;-77
2022/12/03 00:26:15;;;;;;;;;;;3.30;99.90;;;;;;5098027;28;20633;-79
2022/12/03 00:28:43;;;;;;;;;;;3.30;99.90;;;;;;5126543;28;20465;-79
2022/12/03 00:31:12;;;;;;;;;;;3.20;99.90;;;;;;5113560;28;20374;-79
2022/12/03 00:33:39;;;;;;;;;;;3.30;99.90;;;;;;5112366;28;19992;-79
2022/12/03 00:36:06;;;;;;;;;;;3.30;99.90;;;;;;5105961;28;19930;-78
2022/12/03 00:38:33;;;;;;;;;;;3.30;99.90;;;;;;5112366;28;20033;-79
2022/12/03 00:41:00;;;;;;;;;;;3.20;99.90;;;;;;5129897;28;19935;-78
2022/12/03 00:43:27;;;;;;;;;;;3.20;99.90;;;;;;5130153;28;19928;-79
2022/12/03 00:45:54;;;;;;;;;;;3.30;99.90;;;;;;5111968;28;19963;-78
2022/12/03 00:48:23;;;;;;;;;;;3.30;99.90;;;;;;5112647;27;19931;-79
2022/12/03 00:50:50;;;;;;;;;;;2.90;99.90;;;;;;5132380;27;20704;-79
2022/12/03 00:53:18;;;;;;;;;;;3.40;99.90;;;;;;5108676;27;20631;-79
2022/12/03 00:55:44;;;;;;;;;;;3.40;99.90;;;;;;5106949;27;19927;-79
2022/12/03 00:58:12;;;;;;;;;;;3.40;99.90;;;;;;5134207;27;19938;-78
2022/12/03 01:00:39;;;;;;;;;;;3.40;99.90;;;;;;5114271;27;20566;-79
2022/12/03 01:03:06;;;;;;;;;;;3.40;99.90;;;;;;5114110;27;20017;-79
2022/12/03 01:05:35;;;;;;;;;;;3.40;99.90;;;;;;5118321;27;19939;-78
2022/12/03 01:08:02;;;;;;;;;;;3.30;99.90;;;;;;5114302;27;19927;-78
2022/12/03 01:10:29;;;;;;;;;;;3.40;99.90;;;;;;5135430;27;19924;-79
2022/12/03 01:12:57;;;;;;;;;;;3.30;99.90;;;;;;5135385;27;19927;-79
2022/12/03 01:15:24;;;;;;;;;;;3.40;99.90;;;;;;5105728;27;20433;-80
2022/12/03 01:17:54;;;;;;;;;;;3.40;99.90;;;;;;5123867;27;19928;-79
2022/12/03 01:20:21;;;;;;;;;;;3.40;99.90;;;;;;5100141;28;20026;-78
2022/12/03 01:22:50;;;;;;;;;;;3.40;99.90;;;;;;5133517;27;19980;-79
2022/12/03 01:25:17;;;;;;;;;;;3.40;99.90;;;;;;5109937;28;19927;-78
2022/12/03 01:27:44;;;;;;;;;;;3.30;99.90;;;;;;5110932;27;19979;-79
2022/12/03 01:30:13;;;;;;;;;;;3.30;99.90;;;;;;5127793;27;19928;-79
2022/12/03 01:32:39;;;;;;;;;;;3.30;99.90;;;;;;5127282;27;20018;-79
2022/12/03 01:35:06;;;;;;;;;;;3.40;99.90;;;;;;5132731;27;19938;-79
2022/12/03 01:37:33;;;;;;;;;;;3.40;99.90;;;;;;5116357;27;19927;-79
2022/12/03 01:40:01;;;;;;;;;;;3.30;99.90;;;;;;5117111;27;19923;-81
2022/12/03 01:42:29;;;;;;;;;;;3.30;99.90;;;;;;5121296;27;20042;-80
2022/12/03 01:44:57;;;;;;;;;;;3.30;99.90;;;;;;5131156;27;19976;-79
2022/12/03 01:47:26;;;;;;;;;;;3.30;99.90;;;;;;5130112;27;20471;-80
2022/12/03 01:49:54;;;;;;;;;;;3.30;99.90;;;;;;5132424;27;20641;-80
2022/12/03 01:52:22;;;;;;;;;;;3.30;99.90;;;;;;5135761;27;19930;-80
2022/12/03 01:54:50;;;;;;;;;;;3.30;99.90;;;;;;5115070;27;19944;-80
2022/12/03 01:57:25;;;;;;;;;;;3.30;99.90;;;;;;5115603;27;19923;-79
2022/12/03 01:59:52;;;;;;;;;;;3.30;99.90;;;;;;5127048;27;19932;-79
2022/12/03 02:02:21;;;;;;;;;;;3.40;99.90;;;;;;5134531;27;20363;-80
2022/12/03 02:04:48;;;;;;;;;;;3.40;99.90;;;;;;5112458;27;20044;-79
2022/12/03 02:07:16;;;;;;;;;;;3.40;99.90;;;;;;5121424;27;19923;-79
2022/12/03 02:09:43;;;;;;;;;;;3.30;99.90;;;;;;5132787;27;19923;-79
2022/12/03 02:12:17;;;;;;;;;;;3.30;99.90;;;;;;5114030;27;19927;-79
2022/12/03 02:14:45;;;;;;;;;;;3.30;99.90;;;;;;5105626;27;19939;-78
2022/12/03 02:17:13;;;;;;;;;;;3.30;99.90;;;;;;5132360;27;19927;-79
2022/12/03 02:19:40;;;;;;;;;;;3.30;99.90;;;;;;5106083;27;19927;-79
2022/12/03 02:22:12;;;;;;;;;;;3.30;99.90;;;;;;5114594;27;19923;-79
2022/12/03 02:24:41;;;;;;;;;;;3.30;99.90;;;;;;5115232;27;19975;-78
2022/12/03 02:27:11;;;;;;;;;;;5.10;99.90;;;;;;5133548;27;19916;-79
2022/12/03 02:29:38;;;;;;;;;;;3.30;99.90;;;;;;5133266;27;19923;-79
2022/12/03 02:32:05;;;;;;;;;;;3.30;99.90;;;;;;5114270;27;19952;-79
2022/12/03 02:34:33;;;;;;;;;;;3.30;99.90;;;;;;5131799;27;19934;-79
2022/12/03 02:37:00;;;;;;;;;;;3.40;99.90;;;;;;5114047;27;19996;-79
2022/12/03 02:39:27;;;;;;;;;;;3.40;99.90;;;;;;5115962;27;20390;-79
2022/12/03 02:44:40;;;;;;;;;;;3.40;99.90;;;;;;5112382;27;20367;-79
2022/12/03 02:47:07;;;;;;;;;;;3.40;99.90;;;;;;5107810;27;19995;-79
2022/12/03 02:49:34;;;;;;;;;;;3.40;99.90;;;;;;5113391;27;19927;-79
2022/12/03 02:52:02;;;;;;;;;;;3.40;99.90;;;;;;5134765;27;19930;-79
2022/12/03 02:54:29;;;;;;;;;;;3.30;99.90;;;;;;5105906;27;19980;-79
2022/12/03 02:56:56;;;;;;;;;;;3.30;99.90;;;;;;5131363;27;20354;-79
2022/12/03 02:59:23;;;;;;;;;;;3.30;99.90;;;;;;5113916;27;19992;-79
2022/12/03 03:01:51;;;;;;;;;;;3.30;99.90;;;;;;5113538;27;20339;-79
2022/12/03 03:04:18;;;;;;;;;;;3.30;99.90;;;;;;5130482;27;19983;-79
2022/12/03 03:06:45;;;;;;;;;;;3.30;99.90;;;;;;5111359;27;19935;-78
2022/12/03 03:09:12;;;;;;;;;;;3.30;99.90;;;;;;5111404;27;19927;-79
2022/12/03 03:11:39;;;;;;;;;;;3.20;99.90;;;;;;5130667;27;19927;-78
2022/12/03 03:14:06;;;;;;;;;;;3.20;99.90;;;;;;5113935;27;19931;-78
2022/12/03 03:16:33;;;;;;;;;;;3.20;99.90;;;;;;5114487;27;19972;-78
2022/12/03 03:19:02;;;;;;;;;;;3.20;99.90;;;;;;5131815;27;19980;-78
2022/12/03 03:21:30;;;;;;;;;;;3.20;99.90;;;;;;5132093;27;19939;-79
2022/12/03 03:23:57;;;;;;;;;;;3.10;99.90;;;;;;5116716;27;19949;-78
2022/12/03 03:26:24;;;;;;;;;;;3.10;99.90;;;;;;5105058;28;20443;-79
2022/12/03 03:28:51;;;;;;;;;;;3.10;99.90;;;;;;5111028;27;19923;-78
2022/12/03 03:31:19;;;;;;;;;;;3.10;99.90;;;;;;5112606;27;20074;-77
2022/12/03 03:33:47;;;;;;;;;;;3.10;99.90;;;;;;5130680;27;19950;-78
2022/12/03 03:36:16;;;;;;;;;;;3.20;99.90;;;;;;5112938;27;19998;-79
2022/12/03 03:38:44;;;;;;;;;;;5.60;99.90;;;;;;5113380;27;19927;-80
2022/12/03 03:41:11;;;;;;;;;;;3.30;99.90;;;;;;5131982;27;20014;-81
2022/12/03 03:43:38;;;;;;;;;;;3.20;99.90;;;;;;5107788;27;19939;-80
2022/12/03 03:46:06;;;;;;;;;;;3.20;99.90;;;;;;5118232;28;19935;-81
2022/12/03 03:48:34;;;;;;;;;;;3.20;99.90;;;;;;5131041;27;19927;-80
2022/12/03 03:51:02;;;;;;;;;;;3.20;99.90;;;;;;5121416;28;19931;-79
2022/12/03 03:53:31;;;;;;;;;;;3.20;99.90;;;;;;5111107;28;19960;-78
2022/12/03 03:55:58;;;;;;;;;;;3.20;99.90;;;;;;5103443;28;20000;-78
2022/12/03 03:58:25;;;;;;;;;;;3.20;99.90;;;;;;5111430;28;20415;-78
2022/12/03 04:00:52;;;;;;;;;;;3.20;99.90;;;;;;5129268;28;19927;-79
2022/12/03 04:03:19;;;;;;;;;;;3.20;99.90;;;;;;5111786;28;19924;-79
2022/12/03 04:05:46;;;;;;;;;;;3.20;99.90;;;;;;5105898;28;20036;-78
2022/12/03 04:08:13;;;;;;;;;;;3.20;99.90;;;;;;5128302;28;20043;-78
2022/12/03 04:13:26;;;;;;;;;;;3.10;99.90;;;;;;5099287;28;19932;-78
2022/12/03 04:15:53;;;;;;;;;;;3.10;99.90;;;;;;5112909;28;19942;-79
2022/12/03 04:23:49;;;;;;;;;;;3.10;99.90;;;;;;5112127;27;19926;-78
2022/12/03 04:29:01;;;;;;;;;;;3.00;99.90;;;;;;5118686;27;19943;-80
2022/12/03 04:36:57;;;;;;;;;;;3.60;99.90;;;;;;5117995;27;19927;-80
2022/12/03 04:39:24;;;;;;;;;;;3.70;99.90;;;;;;5135043;27;19928;-79
2022/12/03 04:41:52;;;;;;;;;;;3.10;99.90;;;;;;5117297;27;19927;-79
2022/12/03 04:44:35;;;;;;;;;;;3.10;99.90;;;;;;5112926;27;19928;-79
2022/12/03 04:47:04;;;;;;;;;;;3.10;99.90;;;;;;5135220;27;20325;-80
2022/12/03 04:49:31;;;;;;;;;;;3.10;99.90;;;;;;5119652;27;19927;-80
2022/12/03 04:51:58;;;;;;;;;;;3.10;99.90;;;;;;5116226;27;20631;-80
2022/12/03 04:54:25;;;;;;;;;;;3.10;99.90;;;;;;5117893;27;20359;-79
2022/12/03 04:56:54;;;;;;;;;;;3.10;99.90;;;;;;5118173;27;19980;-79
2022/12/03 04:59:21;;;;;;;;;;;3.00;99.90;;;;;;5116889;27;19984;-80
2022/12/03 05:01:48;;;;;;;;;;;3.00;99.90;;;;;;5137058;27;19915;-80
2022/12/03 05:04:15;;;;;;;;;;;3.10;99.90;;;;;;5132789;27;19986;-78
2022/12/03 05:06:42;;;;;;;;;;;3.10;99.90;;;;;;5128971;27;19924;-79
2022/12/03 05:09:09;;;;;;;;;;;3.20;99.90;;;;;;5136404;27;19928;-79
2022/12/03 05:11:36;;;;;;;;;;;3.20;99.90;;;;;;5114788;27;19992;-79
2022/12/03 05:14:04;;;;;;;;;;;3.20;99.90;;;;;;5117486;27;19972;-78
2022/12/03 05:16:31;;;;;;;;;;;3.20;99.90;;;;;;5137079;27;19967;-79
2022/12/03 05:18:59;;;;;;;;;;;3.10;99.90;;;;;;5118083;27;20457;-79
2022/12/03 05:21:26;;;;;;;;;;;3.10;99.90;;;;;;5117261;27;20131;-78
2022/12/03 05:23:54;;;;;;;;;;;3.10;99.90;;;;;;5117021;27;19927;-78
2022/12/03 05:26:21;;;;;;;;;;;3.10;99.90;;;;;;5108730;28;19927;-79
2022/12/03 05:28:48;;;;;;;;;;;3.00;99.90;;;;;;5117940;27;19931;-79
2022/12/03 05:31:16;;;;;;;;;;;3.00;99.90;;;;;;5127843;27;20412;-78
2022/12/03 05:33:43;;;;;;;;;;;3.00;99.90;;;;;;5115960;27;20014;-78
2022/12/03 05:36:10;;;;;;;;;;;3.00;99.90;;;;;;5134948;27;19951;-78
2022/12/03 05:38:37;;;;;;;;;;;3.00;99.90;;;;;;5115453;27;19928;-78
2022/12/03 05:42:52;;;;;;;;;;;2.90;99.90;;;;;;5114705;27;19938;-78
2022/12/03 05:43:50;;;;;;;;;;;2.90;99.90;;;;;;5110482;27;19927;-79
2022/12/03 05:46:18;;;;;;;;;;;2.90;99.90;;;;;;5117200;27;19935;-79
2022/12/03 05:48:45;;;;;;;;;;;2.90;99.90;;;;;;5116664;27;19967;-80
2022/12/03 05:51:12;;;;;;;;;;;2.90;99.90;;;;;;5116527;27;20012;-79
2022/12/03 05:53:39;;;;;;;;;;;2.90;99.90;;;;;;5113942;27;20374;-79
2022/12/03 05:56:07;;;;;;;;;;;2.80;99.90;;;;;;5116765;27;19928;-79
2022/12/03 05:58:34;;;;;;;;;;;2.80;99.90;;;;;;5108971;27;19927;-79
2022/12/03 06:01:00;;;;;;;;;;;2.80;99.90;;;;;;5133490;27;19984;-79
2022/12/03 06:03:29;;;;;;;;;;;2.90;99.90;;;;;;5114624;27;19931;-79
2022/12/03 06:05:55;;;;;;;;;;;2.90;99.90;;;;;;5109824;27;19980;-78
2022/12/03 06:08:22;;;;;;;;;;;2.90;99.90;;;;;;5113803;27;19943;-78
2022/12/03 06:10:49;;;;;;;;;;;2.90;99.90;;;;;;5129577;27;20036;-78
2022/12/03 06:13:16;;;;;;;;;;;2.90;99.90;;;;;;5114319;27;20271;-78
2022/12/03 06:15:43;;;;;;;;;;;2.90;99.90;;;;;;5114513;27;20358;-78
2022/12/03 06:18:10;;;;;;;;;;;2.90;99.90;;;;;;5128895;27;19927;-78
2022/12/03 06:20:38;;;;;;;;;;;2.90;99.90;;;;;;5108724;27;20008;-79
2022/12/03 06:23:05;;;;;;;;;;;2.90;99.90;;;;;;5130563;27;19928;-78
2022/12/03 06:25:32;;;;;;;;;;;2.90;99.90;;;;;;5110083;27;19956;-79
2022/12/03 06:27:59;;;;;;;;;;;2.80;99.90;;;;;;5115818;27;20323;-79
2022/12/03 06:30:26;;;;;;;;;;;2.80;99.90;;;;;;5114609;27;19931;-80
2022/12/03 06:32:53;;;;;;;;;;;2.80;99.90;;;;;;5134685;27;19924;-79
2022/12/03 06:35:21;;;;;;;;;;;2.90;99.90;;;;;;5113378;27;19949;-79
2022/12/03 06:37:50;;;;;;;;;;;2.80;99.90;;;;;;5117319;27;19924;-79
2022/12/03 06:40:17;;;;;;;;;;;3.40;99.90;;;;;;5115858;27;19931;-80
2022/12/03 06:42:44;;;;;;;;;;;2.70;99.90;;;;;;5116528;27;19935;-78
2022/12/03 06:45:11;;;;;;;;;;;2.80;99.90;;;;;;5114839;28;19927;-80
2022/12/03 06:47:38;;;;;;;;;;;2.80;99.90;;;;;;5132296;27;19931;-79
2022/12/03 06:50:11;;;;;;;;;;;2.70;99.90;;;;;;5115784;27;19924;-78
2022/12/03 06:53:01;;;;;;;;;;;2.70;99.90;;;;;;5090301;27;20262;-78
2022/12/03 06:55:28;;;;;;;;;;;2.70;99.90;;;;;;5107431;27;20007;-78
2022/12/03 06:57:55;;;;;;;;;;;2.80;99.90;;;;;;5112336;27;19927;-79
2022/12/03 07:00:22;;;;;;;;;;;2.80;99.90;;;;;;5110018;27;19942;-78
2022/12/03 07:02:48;;;;;;;;;;;2.80;99.90;;;;;;5114244;27;19984;-79
2022/12/03 07:05:15;;;;;;;;;;;2.80;99.90;;;;;;5113941;27;20227;-79
2022/12/03 07:07:42;;;;;;;;;;;2.80;99.90;;;;;;5114471;27;19988;-80
2022/12/03 07:10:11;;;;;;;;;;;2.80;99.90;;;;;;5115183;27;19923;-79
2022/12/03 07:12:38;;;;;;;;;;;2.80;99.90;;;;;;5114541;27;19931;-78
2022/12/03 07:15:05;;;;;;;;;;;2.80;99.90;;;;;;5114091;27;20338;-78
2022/12/03 07:17:32;;;;;;;;;;;2.80;99.90;;;;;;5109235;27;19987;-78
2022/12/03 07:19:59;;;;;;;;;;;2.80;99.90;;;;;;5133365;27;19927;-78
2022/12/03 07:22:26;;;;;;;;;;;2.90;99.90;;;;;;5133119;27;19923;-79
2022/12/03 07:24:53;;;;;;;;;;;2.90;99.90;;;;;;5133795;27;20243;-79
2022/12/03 07:27:21;;;;;;;;;;;2.90;99.90;;;;;;5116410;27;19923;-80
2022/12/03 07:29:48;;;;;;;;;;;2.80;99.90;;;;;;5117727;27;20410;-78
2022/12/03 07:32:15;;;;;;;;;;;2.80;99.90;;;;;;5110708;27;19928;-79
2022/12/03 07:34:42;;;;;;;;;;;2.80;99.90;;;;;;5128927;27;19935;-79
2022/12/03 07:37:09;;;;;;;;;;;2.90;99.90;;;;;;5111525;27;19928;-81
2022/12/03 07:39:36;;;;;;;;;;;2.90;99.90;;;;;;5131755;27;19928;-80
2022/12/03 07:42:03;;;;;;;;;;;2.90;99.90;;;;;;5132832;27;19937;-81
2022/12/03 07:44:32;;;;;;;;;;;2.90;99.90;;;;;;5114064;28;19923;-83
2022/12/03 07:46:59;;;;;;;;;;;2.90;99.90;;;;;;5114517;28;19943;-83
2022/12/03 07:49:26;;;;;;;;;;;2.90;99.90;;;;;;5117255;28;19938;-82
2022/12/03 07:51:53;;;;;;;;;;;3.00;99.90;;;;;;5132450;28;19927;-82
2022/12/03 07:54:20;;;;;;;;;;;3.00;99.90;;;;;;5122961;28;19924;-84
2022/12/03 07:56:48;;;;;;;;;;;3.10;99.90;;;;;;5127641;27;20473;-83
2022/12/03 07:59:16;;;;;;;;;;;3.10;99.90;;;;;;5120129;27;19934;-81
2022/12/03 08:01:44;;;;;;;;;;;3.10;99.90;;;;;;5124974;27;19935;-80
2022/12/03 08:04:11;;;;;;;;;;;3.20;99.90;;;;;;5119554;27;19934;-82
2022/12/03 08:06:39;;;;;;;;;;;3.30;99.90;;;;;;5140362;27;19935;-82
2022/12/03 08:09:10;;;;;;;;;;;3.30;99.90;;;;;;5118757;27;19947;-82
2022/12/03 08:11:38;;;;;;;;;;;3.40;99.90;;;;;;5141060;27;20477;-82
2022/12/03 08:14:07;;;;;;;;;;;3.40;99.90;;;;;;5116372;28;19972;-83
2022/12/03 08:16:36;;;;;;;;;;;3.50;99.90;;;;;;5118258;27;19927;-82
2022/12/03 08:19:09;;;;;;;;;;;3.80;99.90;;;;;;5137345;27;19927;-82
2022/12/03 08:21:36;;;;;;;;;;;3.80;99.90;;;;;;5140364;27;20435;-83
2022/12/03 08:24:12;;;;;;;;;;;3.90;99.90;;;;;;5121627;27;20015;-82
2022/12/03 08:26:39;;;;;;;;;;;4.00;99.90;;;;;;5122972;27;19928;-82
2022/12/03 08:29:08;;;;;;;;;;;4.10;99.90;;;;;;5137245;27;19927;-81
2022/12/03 08:31:35;;;;;;;;;;;4.10;99.90;;;;;;5121689;27;19969;-81
2022/12/03 08:34:15;;;;;;;;;;;4.10;99.90;;;;;;5119697;27;19931;-83
2022/12/03 08:36:42;;;;;;;;;;;4.20;99.90;;;;;;5118564;27;19938;-83
2022/12/03 08:39:16;;;;;;;;;;;4.10;99.90;;;;;;5137018;27;19965;-82
2022/12/03 08:44:29;;;;;;;;;;;4.30;99.90;;;;;;5113685;27;19927;-83
2022/12/03 08:47:00;;;;;;;;;;;4.40;99.90;;;;;;5113988;27;19923;-83
2022/12/03 08:49:28;;;;;;;;;;;4.30;99.90;;;;;;5125490;27;19939;-84
2022/12/03 08:51:57;;;;;;;;;;;4.20;99.90;;;;;;5112012;28;19931;-84
2022/12/03 08:54:24;;;;;;;;;;;4.10;99.90;;;;;;5103190;27;19927;-83
2022/12/03 08:56:52;;;;;;;;;;;4.00;99.90;;;;;;5119567;27;19942;-84
2022/12/03 08:59:23;;;;;;;;;;;3.90;99.90;;;;;;5113163;27;20386;-84
2022/12/03 09:01:52;;;;;;;;;;;3.80;99.90;;;;;;5134365;27;19935;-83
2022/12/03 09:04:24;;;;;;;;;;;3.80;99.90;;;;;;5138887;27;19932;-83
2022/12/03 09:06:53;;;;;;;;;;;3.70;99.90;;;;;;5117836;27;19935;-83
2022/12/03 09:09:20;;;;;;;;;;;3.70;99.90;;;;;;5132517;27;19923;-84
2022/12/03 09:11:47;;;;;;;;;;;3.70;99.90;;;;;;5139539;27;19932;-80
2022/12/03 09:14:16;;;;;;;;;;;3.70;99.90;;;;;;5119513;27;20623;-80
2022/12/03 09:16:43;;;;;;;;;;;3.60;99.90;;;;;;5131088;27;19970;-80
2022/12/03 09:19:10;;;;;;;;;;;3.70;99.90;;;;;;5138188;27;19927;-80
2022/12/03 09:21:37;;;;;;;;;;;3.70;99.90;;;;;;5119742;27;19927;-80
2022/12/03 09:24:05;;;;;;;;;;;3.70;99.90;;;;;;5115693;27;19976;-80
2022/12/03 09:26:32;;;;;;;;;;;3.90;99.90;;;;;;5116410;27;19931;-80
2022/12/03 09:28:59;;;;;;;;;;;4.00;99.90;;;;;;5117616;27;19939;-80
2022/12/03 09:31:26;;;;;;;;;;;4.00;99.90;;;;;;5121190;27;19946;-80
2022/12/03 09:33:53;;;;;;;;;;;4.00;99.90;;;;;;5104157;27;20010;-80
2022/12/03 09:36:20;;;;;;;;;;;4.10;99.90;;;;;;5118966;27;19935;-79
2022/12/03 09:38:47;;;;;;;;;;;4.20;99.90;;;;;;5127622;27;19939;-80
2022/12/03 09:41:15;;;;;;;;;;;4.20;99.90;;;;;;5136037;27;19927;-80
2022/12/03 09:43:42;;;;;;;;;;;4.20;99.90;;;;;;5131507;27;19923;-80
2022/12/03 09:46:17;;;;;;;;;;;4.20;99.90;;;;;;5113566;27;19945;-81
2022/12/03 09:48:44;;;;;;;;;;;4.10;99.90;;;;;;5120804;27;19927;-79
2022/12/03 09:51:11;;;;;;;;;;;4.10;99.90;;;;;;5114999;27;20653;-79
2022/12/03 09:53:39;;;;;;;;;;;4.10;99.90;;;;;;5122809;27;20263;-80
2022/12/03 09:56:06;;;;;;;;;;;4.20;99.90;;;;;;5118059;27;19931;-78
2022/12/03 09:58:34;;;;;;;;;;;4.30;99.90;;;;;;5116775;27;20536;-79
2022/12/03 10:01:02;;;;;;;;;;;4.20;99.90;;;;;;5126731;27;20044;-81
2022/12/03 10:03:30;;;;;;;;;;;4.20;99.90;;;;;;5120180;27;19931;-80
2022/12/03 10:05:57;;;;;;;;;;;4.20;99.90;;;;;;5119855;27;20405;-81
2022/12/03 10:08:25;;;;;;;;;;;4.20;99.90;;;;;;5114224;27;20411;-81
2022/12/03 10:10:54;;;;;;;;;;;4.30;99.90;;;;;;5115174;27;19953;-82
2022/12/03 10:13:23;;;;;;;;;;;4.30;99.90;;;;;;5138742;27;19929;-81
2022/12/03 10:15:51;;;;;;;;;;;4.40;99.90;;;;;;5118929;27;19934;-81
2022/12/03 10:18:20;;;;;;;;;;;4.50;99.90;;;;;;5112976;27;20091;-78
2022/12/03 10:20:47;;;;;;;;;;;4.50;99.90;;;;;;5112603;27;19924;-78
2022/12/03 10:23:24;;;;;;;;;;;4.50;99.90;;;;;;5104062;28;19928;-78
2022/12/03 10:25:52;;;;;;;;;;;4.50;99.90;;;;;;5112518;27;20382;-79
2022/12/03 10:28:27;;;;;;;;;;;4.50;99.90;;;;;;5113418;27;19988;-83
2022/12/03 10:30:56;;;;;;;;;;;4.30;99.90;;;;;;5133072;27;19930;-78
2022/12/03 10:33:29;;;;;;;;;;;4.20;99.90;;;;;;5131304;27;19923;-78
2022/12/03 10:35:56;;;;;;;;;;;4.30;99.90;;;;;;5124730;27;19939;-78
2022/12/03 10:38:23;;;;;;;;;;;4.40;99.90;;;;;;5135204;27;19930;-79
2022/12/03 10:40:50;;;;;;;;;;;4.40;99.90;;;;;;5115317;27;19980;-78
2022/12/03 10:43:21;;;;;;;;;;;4.40;99.90;;;;;;5110826;28;20512;-78
2022/12/03 10:45:48;;;;;;;;;;;4.40;99.90;;;;;;5112231;27;20432;-79
2022/12/03 10:48:19;;;;;;;;;;;4.30;99.90;;;;;;5111842;27;19984;-80
2022/12/03 10:50:47;;;;;;;;;;;4.40;99.90;;;;;;5114573;27;19963;-80
2022/12/03 10:53:13;;;;;;;;;;;4.40;99.90;;;;;;5132187;27;19938;-80
2022/12/03 10:55:41;;;;;;;;;;;4.20;99.90;;;;;;5133194;27;20340;-79
2022/12/03 10:58:12;;;;;;;;;;;4.20;99.90;;;;;;5115678;27;19927;-80
2022/12/03 11:00:39;;;;;;;;;;;4.10;99.90;;;;;;5134499;27;20439;-79
2022/12/03 11:03:15;;;;;;;;;;;4.10;99.90;;;;;;5114656;27;19984;-77
2022/12/03 11:05:44;;;;;;;;;;;4.10;99.90;;;;;;5119149;27;19935;-77
2022/12/03 11:08:15;;;;;;;;;;;4.10;99.90;;;;;;5115552;27;19942;-76
2022/12/03 11:10:42;;;;;;;;;;;4.10;99.90;;;;;;5133920;27;20345;-78
2022/12/03 11:13:29;;;;;;;;;;;4.20;99.90;;;;;;5114018;27;19931;-78
2022/12/03 11:15:56;;;;;;;;;;;4.20;99.90;;;;;;5132605;27;19927;-77
2022/12/03 11:18:42;;;;;;;;;;;4.20;99.90;;;;;;5108435;27;19924;-76
2022/12/03 11:21:11;;;;;;;;;;;4.30;99.90;;;;;;5110730;27;20062;-77
2022/12/03 11:23:57;;;;;;;;;;;4.30;99.90;;;;;;5113289;27;19924;-76
2022/12/03 11:26:42;;;;;;;;;;;4.30;99.90;;;;;;5123093;27;19924;-77
2022/12/03 11:29:13;;;;;;;;;;;4.40;99.90;;;;;;5120816;27;20446;-78
2022/12/03 11:31:41;;;;;;;;;;;4.30;99.90;;;;;;5130817;27;20000;-77
2022/12/03 11:34:28;;;;;;;;;;;4.30;99.90;;;;;;5104864;28;20358;-77
2022/12/03 11:37:13;;;;;;;;;;;4.30;99.90;;;;;;5103114;28;19932;-77
2022/12/03 11:39:59;;;;;;;;;;;4.30;99.90;;;;;;5098833;28;19931;-78
2022/12/03 11:42:39;;;;;;;;;;;4.30;99.90;;;;;;5111206;27;19987;-78
2022/12/03 11:45:16;;;;;;;;;;;4.20;99.90;;;;;;5111959;27;19923;-78
2022/12/03 11:47:44;;;;;;;;;;;4.30;99.90;;;;;;5106510;27;19927;-78
2022/12/03 11:50:18;;;;;;;;;;;4.20;99.90;;;;;;5105086;27;19927;-78
2022/12/03 11:52:46;;;;;;;;;;;4.20;99.90;;;;;;5112691;28;19950;-79
2022/12/03 11:55:15;;;;;;;;;;;4.30;99.90;;;;;;5108325;28;20041;-79
2022/12/03 11:57:43;;;;;;;;;;;4.30;99.90;;;;;;5130788;28;19924;-78
2022/12/03 12:00:16;;;;;;;;;;;4.30;99.90;;;;;;5134604;28;19955;-79
2022/12/03 12:02:43;;;;;;;;;;;4.30;99.90;;;;;;5126825;28;20436;-79
2022/12/03 12:05:19;;;;;;;;;;;4.30;99.90;;;;;;5116607;28;19980;-79
2022/12/03 12:07:47;;;;;;;;;;;4.30;99.90;;;;;;5115437;28;20279;-79
2022/12/03 12:10:14;;;;;;;;;;;4.20;99.90;;;;;;5133924;28;19932;-78
2022/12/03 12:12:44;;;;;;;;;;;4.20;99.90;;;;;;5110598;28;20290;-78
2022/12/03 12:15:41;;;;;;;;;;;4.20;99.90;;;;;;5113258;28;19935;-78
2022/12/03 12:18:27;;;;;;;;;;;4.20;99.90;;;;;;5105656;28;20013;-79
2022/12/03 12:20:54;;;;;;;;;;;4.20;99.90;;;;;;5125362;28;19997;-78
2022/12/03 12:23:22;;;;;;;;;;;4.20;99.90;;;;;;5131196;28;19931;-79
2022/12/03 12:25:49;;;;;;;;;;;4.10;99.90;;;;;;5107872;28;19928;-76
2022/12/03 12:28:18;;;;;;;;;;;4.00;99.90;;;;;;5112129;28;19932;-77
2022/12/03 12:30:45;;;;;;;;;;;4.00;99.90;;;;;;5111008;28;19953;-77
2022/12/03 12:33:17;;;;;;;;;;;4.00;99.90;;;;;;5110914;28;19935;-78
2022/12/03 12:35:44;;;;;;;;;;;4.00;99.90;;;;;;5112733;28;19992;-77
2022/12/03 12:38:16;;;;;;;;;;;4.10;99.90;;;;;;5112155;28;19923;-77
2022/12/03 12:40:44;;;;;;;;;;;4.10;99.90;;;;;;5110421;28;19923;-77
2022/12/03 12:43:15;;;;;;;;;;;4.00;99.90;;;;;;5110702;28;20018;-78
2022/12/03 12:45:44;;;;;;;;;;;4.00;99.90;;;;;;5113481;27;19927;-77
2022/12/03 12:48:21;;;;;;;;;;;4.10;99.90;;;;;;5126023;27;20275;-77
2022/12/03 12:50:56;;;;;;;;;;;4.20;99.90;;;;;;5099383;27;19932;-78
2022/12/03 12:53:29;;;;;;;;;;;4.20;99.90;;;;;;5126268;27;19923;-78
2022/12/03 12:56:00;;;;;;;;;;;4.30;99.90;;;;;;5137988;27;19927;-78
2022/12/03 12:58:30;;;;;;;;;;;4.40;99.90;;;;;;5100121;28;20004;-77
2022/12/03 13:01:01;;;;;;;;;;;4.40;99.90;;;;;;5116518;27;19983;-77
2022/12/03 13:03:32;;;;;;;;;;;4.30;99.90;;;;;;5117036;27;19923;-78
2022/12/03 13:05:59;;;;;;;;;;;4.20;99.90;;;;;;5117817;27;20023;-78
2022/12/03 13:08:27;;;;;;;;;;;4.20;99.90;;;;;;5117181;27;19976;-78
2022/12/03 13:10:55;;;;;;;;;;;4.10;99.90;;;;;;5134924;27;19927;-78
2022/12/03 13:13:23;;;;;;;;;;;4.10;99.90;;;;;;5116345;27;19923;-78
2022/12/03 13:15:58;;;;;;;;;;;4.10;99.90;;;;;;5132860;27;20398;-78
2022/12/03 13:18:29;;;;;;;;;;;4.00;99.90;;;;;;5111789;27;19935;-77
2022/12/03 13:20:56;;;;;;;;;;;4.00;99.90;;;;;;5115680;27;19988;-77
2022/12/03 13:23:27;;;;;;;;;;;4.00;99.90;;;;;;5116838;27;19927;-76
2022/12/03 13:25:55;;;;;;;;;;;4.10;99.90;;;;;;5116252;27;20022;-77
2022/12/03 13:28:22;;;;;;;;;;;4.10;99.90;;;;;;5132075;27;19927;-76
2022/12/03 13:30:49;;;;;;;;;;;4.10;99.90;;;;;;5105020;28;19928;-77
2022/12/03 13:33:24;;;;;;;;;;;4.00;99.90;;;;;;5092621;28;19931;-77
2022/12/03 13:35:56;;;;;;;;;;;4.00;99.90;;;;;;5103903;27;19995;-77
2022/12/03 13:38:30;;;;;;;;;;;4.00;99.90;;;;;;5134028;27;19939;-80
2022/12/03 13:41:01;;;;;;;;;;;4.00;99.90;;;;;;5128782;27;19927;-77
2022/12/03 13:43:39;;;;;;;;;;;4.00;99.90;;;;;;5135853;27;19923;-79
2022/12/03 13:46:11;;;;;;;;;;;4.00;99.90;;;;;;5130513;27;19932;-79
2022/12/03 13:48:47;;;;;;;;;;;3.90;99.90;;;;;;5130815;27;20217;-78
2022/12/03 13:51:27;;;;;;;;;;;3.90;99.90;;;;;;5123195;27;19924;-79
2022/12/03 13:54:01;;;;;;;;;;;3.90;99.90;;;;;;5126326;27;19955;-78
2022/12/03 13:56:29;;;;;;;;;;;3.90;99.90;;;;;;5105343;27;19923;-78
2022/12/03 13:58:58;;;;;;;;;;;6.30;99.90;;;;;;5114454;27;19923;-78
2022/12/03 14:01:26;;;;;;;;;;;3.90;99.90;;;;;;5133018;27;19984;-78
2022/12/03 14:03:53;;;;;;;;;;;4.00;99.90;;;;;;5130082;27;19930;-78
2022/12/03 14:06:22;;;;;;;;;;;4.00;99.90;;;;;;5115023;27;20416;-79
2022/12/03 14:08:49;;;;;;;;;;;3.90;99.90;;;;;;5128535;27;19927;-78
2022/12/03 14:13:57;;;;;;;;;;;3.80;99.90;;;;;;5124494;27;20074;-78
2022/12/03 14:16:24;;;;;;;;;;;3.70;99.90;;;;;;5106134;27;20271;-79
2022/12/03 14:18:51;;;;;;;;;;;3.60;99.90;;;;;;5111333;27;19933;-77
2022/12/03 14:21:18;;;;;;;;;;;3.60;99.90;;;;;;5126335;27;19924;-78
2022/12/03 14:23:48;;;;;;;;;;;3.60;99.90;;;;;;5115600;27;19927;-78
2022/12/03 14:26:16;;;;;;;;;;;3.60;99.90;;;;;;5113620;27;19923;-79
2022/12/03 14:28:43;;;;;;;;;;;3.50;99.90;;;;;;5113062;27;19933;-79
2022/12/03 14:31:10;;;;;;;;;;;3.50;99.90;;;;;;5113757;27;19931;-78
2022/12/03 14:33:37;;;;;;;;;;;3.50;99.90;;;;;;5115593;27;19962;-77
2022/12/03 14:36:05;;;;;;;;;;;3.60;99.90;;;;;;5131955;27;19923;-77
2022/12/03 14:38:38;;;;;;;;;;;3.50;99.90;;;;;;5131433;27;19927;-76
2022/12/03 14:42:11;;;;;;;;;;;3.50;99.90;;;;;;5119421;27;19924;-77
2022/12/03 14:43:54;;;;;;;;;;;3.50;99.90;;;;;;5110371;27;20030;-78
2022/12/03 14:46:21;;;;;;;;;;;3.50;99.90;;;;;;5113221;27;19970;-79
2022/12/03 14:48:48;;;;;;;;;;;;;;;;;;5103457;28;19999;-78
2022/12/03 14:51:15;;;;;;;;;;;3.50;99.90;;;;;;5111111;27;19927;-78
2022/12/03 14:53:44;;;;;;;;;;;3.50;99.90;;;;;;5118637;27;19923;-78
2022/12/03 14:56:57;;;;;;;;;;;3.50;99.90;;;;;;5122053;27;19930;-79
2022/12/03 14:59:29;;;;;;;;;;;3.50;99.90;;;;;;5113487;27;19927;-80
2022/12/03 15:05:08;;;;;;;;;;;3.50;99.90;;;;;;5115905;27;19989;-78
2022/12/03 15:07:37;;;;;;;;;;;3.40;99.90;;;;;;5101503;27;19927;-78
2022/12/03 15:10:06;;;;;;;;;;;3.30;99.90;;;;;;5113400;27;19976;-79